Time;durP1;ratioP1;P1;durP2;ratioP2;P2;SDS_P1;SDS_P2;PMS_P1;PMS_P2;Temp;Humidity;BMP_temperature;BMP_pressure;BME280_temperature;BME280_humidity;BME280_pressure;Samples;Min_cycle;Max_cycle;Signal;HPM_P1;HPM_P2
2022/05/11 00:00:49;;;;;;;10.63;5.72;;;;;;;18.45;59.79;100690.41;4941813;29;20538;-82
2022/05/11 00:03:18;;;;;;;11.20;5.50;;;;;;;18.37;60.28;100689.84;4941141;29;20111;-80
2022/05/11 00:05:45;;;;;;;8.25;5.78;;;;;;;18.11;61.37;100691.47;4940582;29;20130;-80
2022/05/11 00:08:11;;;;;;;11.30;5.82;;;;;;;18.12;61.29;100682.50;4940733;29;20107;-78
2022/05/11 00:10:38;;;;;;;10.85;5.78;;;;;;;18.04;61.44;100698.59;4940772;29;20134;-79
2022/05/11 00:13:06;;;;;;;9.10;6.28;;;;;;;17.97;61.71;100692.47;4942001;29;20055;-80
2022/05/11 00:15:34;;;;;;;16.63;6.47;;;;;;;17.98;61.12;100680.03;4940973;29;20158;-79
2022/05/11 00:18:01;;;;;;;9.52;6.18;;;;;;;17.90;61.73;100679.25;4940462;29;20711;-78
2022/05/11 00:20:29;;;;;;;7.82;5.93;;;;;;;17.82;61.81;100676.78;4940419;29;20051;-80
2022/05/11 00:22:57;;;;;;;8.98;6.65;;;;;;;17.83;61.72;100677.63;4941625;29;20134;-78
2022/05/11 00:25:25;;;;;;;10.65;6.13;;;;;;;17.80;62.13;100680.66;4940959;29;20055;-79
2022/05/11 00:27:52;;;;;;;8.05;6.00;;;;;;;17.80;62.05;100678.00;4940792;29;20131;-79
2022/05/11 00:30:19;;;;;;;12.48;6.30;;;;;;;17.88;61.73;100669.88;4948082;29;20598;-78
2022/05/11 00:32:46;;;;;;;9.50;6.10;;;;;;;17.82;61.79;100671.50;4949597;29;20127;-77
2022/05/11 00:35:12;;;;;;;10.57;6.32;;;;;;;17.82;62.11;100670.69;4953071;29;20154;-77
2022/05/11 00:37:40;;;;;;;7.80;6.00;;;;;;;17.79;62.50;100665.78;4948605;29;20064;-78
2022/05/11 00:40:08;;;;;;;8.00;6.07;;;;;;;17.71;63.05;100665.97;4939311;29;20135;-78
2022/05/11 00:42:35;;;;;;;11.90;6.20;;;;;;;17.61;63.10;100662.88;4939619;29;20091;-79
2022/05/11 00:45:01;;;;;;;9.38;6.07;;;;;;;17.61;63.29;100661.03;4939257;29;20119;-78
2022/05/11 00:47:34;;;;;;;11.57;6.10;;;;;;;17.61;63.32;100657.59;4938612;29;20056;-80
2022/05/11 00:50:05;;;;;;;10.40;6.15;;;;;;;17.53;63.68;100648.00;4938526;29;20052;-80
2022/05/11 00:52:41;;;;;;;10.48;6.20;;;;;;;17.50;63.86;100651.88;4939072;29;20074;-79
2022/05/11 00:55:14;;;;;;;11.15;6.50;;;;;;;17.49;64.01;100644.94;4938519;29;20078;-79
2022/05/11 00:57:47;;;;;;;10.52;6.88;;;;;;;17.52;64.37;100651.66;4938011;29;20550;-78
2022/05/11 01:00:15;;;;;;;10.70;6.50;;;;;;;17.40;64.71;100642.72;4938206;29;20115;-78
2022/05/11 01:02:44;;;;;;;7.60;6.20;;;;;;;17.49;64.61;100634.38;4939456;29;20112;-79
2022/05/11 01:05:12;;;;;;;9.90;6.43;;;;;;;17.43;64.70;100639.66;4938889;29;20048;-79
2022/05/11 01:07:39;;;;;;;14.90;6.80;;;;;;;17.46;64.71;100641.91;4939328;29;20051;-79
2022/05/11 01:10:09;;;;;;;9.73;6.85;;;;;;;17.53;64.90;100632.94;4938356;29;20115;-78
2022/05/11 01:12:40;;;;;;;10.15;6.43;;;;;;;17.50;65.06;100640.47;4937697;29;20056;-77
2022/05/11 01:15:10;;;;;;;7.90;6.97;;;;;;;17.46;64.99;100631.34;4937320;29;20138;-78
2022/05/11 01:17:38;;;;;;;12.20;6.85;;;;;;;17.43;65.60;100632.53;4939254;29;20135;-79
2022/05/11 01:20:07;;;;;;;9.88;6.60;;;;;;;17.28;64.84;100616.03;4963111;23;20082;-81
2022/05/11 01:22:39;;;;;;;13.95;7.03;;;;;;;17.32;65.58;100619.09;4957463;29;20051;-80
2022/05/11 01:25:19;;;;;;;11.60;6.85;;;;;;;17.38;65.56;100627.03;4958608;29;20525;-80
2022/05/11 01:27:55;;;;;;;10.50;7.15;;;;;;;17.33;65.88;100626.00;4957949;28;20061;-80
2022/05/11 01:30:24;;;;;;;10.43;6.68;;;;;;;17.20;65.75;100611.72;4943516;28;20051;-80
2022/05/11 01:32:58;;;;;;;9.90;6.63;;;;;;;17.24;65.88;100612.16;4939441;29;20514;-80
2022/05/11 01:35:49;;;;;;;16.30;7.47;;;;;;;17.10;66.26;100605.19;4938879;29;20055;-80
2022/05/11 01:38:27;;;;;;;8.75;6.88;;;;;;;17.07;66.44;100601.09;4938743;29;20106;-79
2022/05/11 01:40:56;;;;;;;8.77;6.75;;;;;;;17.05;65.98;100599.69;4940068;29;20052;-81
2022/05/11 01:43:25;;;;;;;12.98;6.70;;;;;;;17.04;65.87;100595.41;4939246;29;20080;-81
2022/05/11 01:45:52;;;;;;;11.25;6.70;;;;;;;17.10;65.42;100591.97;4939665;29;20087;-81
2022/05/11 01:48:18;;;;;;;8.98;6.43;;;;;;;16.89;65.75;100588.47;4938799;29;20054;-79
2022/05/11 01:50:45;;;;;;;9.20;6.82;;;;;;;16.84;65.58;100588.25;4938193;29;20054;-79
2022/05/11 01:53:12;;;;;;;13.73;6.40;;;;;;;16.79;65.33;100584.56;4939319;29;20493;-81
2022/05/11 01:55:40;;;;;;;12.18;6.60;;;;;;;16.81;65.46;100591.28;4938951;29;20066;-81
2022/05/11 01:58:09;;;;;;;10.80;6.47;;;;;;;16.73;65.70;100586.16;4938666;29;20107;-81
2022/05/11 02:00:36;;;;;;;12.45;6.55;;;;;;;16.73;65.98;100586.16;4939132;29;20142;-82
2022/05/11 02:03:04;;;;;;;9.05;6.10;;;;;;;16.81;65.86;100586.00;4939017;29;20489;-82
2022/05/11 02:08:15;;;;;;;9.25;6.65;;;;;;;16.65;66.67;100575.75;4939129;29;20075;-81
2022/05/11 02:10:42;;;;;;;8.55;6.70;;;;;;;16.66;66.23;100574.75;4941889;29;20119;-81
2022/05/11 02:13:10;;;;;;;15.57;6.55;;;;;;;16.59;66.86;100571.22;4938862;29;20090;-81
2022/05/11 02:15:37;;;;;;;11.32;6.60;;;;;;;16.65;66.60;100572.28;4938291;29;20140;-81
2022/05/11 02:18:05;;;;;;;10.02;5.97;;;;;;;16.63;66.94;100569.00;4938238;29;20048;-81
2022/05/11 02:20:32;;;;;;;8.82;6.38;;;;;;;16.60;66.76;100563.09;4938813;29;20051;-81
2022/05/11 02:22:59;;;;;;;10.98;6.28;;;;;;;16.53;66.88;100561.47;4940969;29;20426;-80
2022/05/11 02:25:26;;;;;;;10.20;6.38;;;;;;;16.53;67.21;100558.81;4942315;29;20143;-80
2022/05/11 02:27:53;;;;;;;8.70;6.45;;;;;;;16.45;67.56;100551.06;4942180;29;20134;-80
2022/05/11 02:30:27;;;;;;;12.60;6.85;;;;;;;16.40;67.34;100549.00;4942622;29;20291;-80
2022/05/11 02:32:54;;;;;;;11.75;6.85;;;;;;;16.35;67.88;100548.78;4943211;29;20116;-80
2022/05/11 02:35:22;;;;;;;10.05;6.82;;;;;;;16.26;67.80;100542.03;4943781;29;20144;-79
2022/05/11 02:37:51;;;;;;;11.05;6.22;;;;;;;16.24;67.97;100549.31;4942147;29;20075;-79
2022/05/11 02:40:21;;;;;;;14.35;6.88;;;;;;;16.29;67.83;100546.09;4942616;29;20054;-80
2022/05/11 02:42:47;;;;;;;11.88;7.25;;;;;;;16.20;67.89;100543.63;4942660;29;20554;-80
2022/05/11 02:45:15;;;;;;;11.20;7.57;;;;;;;16.33;67.69;100537.59;4943215;29;20127;-79
2022/05/11 02:47:44;;;;;;;9.05;7.07;;;;;;;16.22;68.25;100538.97;4943114;29;20080;-80
2022/05/11 02:50:12;;;;;;;9.65;7.50;;;;;;;16.19;68.28;100536.69;4941906;29;20242;-78
2022/05/11 02:52:39;;;;;;;11.65;6.82;;;;;;;16.21;68.34;100529.41;4941948;29;20052;-79
2022/05/11 02:55:06;;;;;;;11.18;7.10;;;;;;;16.13;68.79;100529.56;4942896;29;20593;-80
2022/05/11 02:57:33;;;;;;;9.50;7.35;;;;;;;16.15;69.13;100530.19;4943346;29;20098;-80
2022/05/11 03:00:00;;;;;;;10.00;7.40;;;;;;;16.11;69.51;100515.75;4942686;29;20057;-80
2022/05/11 03:02:27;;;;;;;9.02;7.13;;;;;;;16.12;69.79;100513.91;4943879;29;20079;-80
2022/05/11 03:04:55;;;;;;;10.75;7.63;;;;;;;16.09;69.95;100514.31;4942713;29;20140;-80
2022/05/11 03:07:22;;;;;;;14.27;7.57;;;;;;;15.99;70.36;100519.97;4941984;29;20143;-81
2022/05/11 03:09:49;;;;;;;10.13;7.20;;;;;;;15.95;70.47;100513.44;4941485;29;20090;-81
2022/05/11 03:12:16;;;;;;;15.20;8.38;;;;;;;15.93;70.52;100504.91;4942291;29;20076;-81
2022/05/11 03:14:43;;;;;;;18.27;7.80;;;;;;;15.93;70.40;100510.16;4942619;29;20203;-78
2022/05/11 03:17:10;;;;;;;18.50;7.22;;;;;;;15.86;70.68;100501.41;4941881;29;20056;-81
2022/05/11 03:19:37;;;;;;;12.65;8.00;;;;;;;15.88;70.73;100502.00;4940879;29;20399;-80
2022/05/11 03:22:05;;;;;;;15.25;7.13;;;;;;;15.81;70.92;100503.78;4942256;29;20048;-81
2022/05/11 03:24:31;;;;;;;12.52;7.43;;;;;;;15.73;71.14;100503.94;4942221;29;20580;-81
2022/05/11 03:26:58;;;;;;;12.93;7.90;;;;;;;15.69;71.31;100505.31;4941965;29;20052;-81
2022/05/11 03:29:25;;;;;;;12.45;7.70;;;;;;;15.69;71.28;100503.50;4941513;29;20063;-81
2022/05/11 03:34:50;;;;;;;10.60;7.50;;;;;;;15.71;71.23;100493.56;4922121;29;20059;-80
2022/05/11 03:37:20;;;;;;;10.25;7.65;;;;;;;15.66;71.56;100487.25;4920241;29;20135;-80
2022/05/11 03:39:47;;;;;;;11.77;7.60;;;;;;;15.71;71.28;100492.75;4930294;29;20479;-80
2022/05/11 03:42:16;;;;;;;16.85;8.30;;;;;;;15.71;71.16;100490.13;4943206;29;20075;-80
2022/05/11 03:44:43;;;;;;;12.10;8.40;;;;;;;15.61;71.25;100482.53;4943176;29;20051;-78
2022/05/11 03:47:09;;;;;;;13.60;8.45;;;;;;;15.55;71.74;100489.41;4943019;29;20499;-81
2022/05/11 03:49:37;;;;;;;13.60;7.72;;;;;;;15.57;71.95;100479.50;4942701;29;20510;-80
2022/05/11 03:52:04;;;;;;;15.60;8.45;;;;;;;15.54;72.41;100479.84;4942379;29;20132;-80
2022/05/11 03:54:33;;;;;;;10.80;7.47;;;;;;;15.59;71.86;100471.41;4941657;29;20151;-80
2022/05/11 03:56:59;;;;;;;11.88;7.63;;;;;;;15.59;71.53;100476.69;4943240;29;20506;-81
2022/05/11 03:59:26;;;;;;;12.32;8.07;;;;;;;15.55;71.74;100476.22;4940024;29;20071;-79
2022/05/11 04:01:53;;;;;;;11.88;7.88;;;;;;;15.45;71.95;100470.44;4941051;29;20127;-79
2022/05/11 04:04:19;;;;;;;11.38;8.48;;;;;;;15.42;71.99;100462.91;4938810;29;20482;-78
2022/05/11 04:06:48;;;;;;;13.50;7.78;;;;;;;15.46;72.53;100476.53;4938480;29;20055;-79
2022/05/11 04:09:14;;;;;;;11.00;7.95;;;;;;;15.31;72.92;100471.34;4938615;29;20143;-79
2022/05/11 04:11:43;;;;;;;12.35;7.90;;;;;;;15.46;72.27;100477.34;4939497;29;20052;-79
2022/05/11 04:14:09;;;;;;;13.77;8.60;;;;;;;15.48;72.05;100474.53;4938099;29;20055;-78
2022/05/11 04:16:36;;;;;;;14.65;8.82;;;;;;;15.54;72.05;100471.94;4937718;29;20051;-78
2022/05/11 04:19:03;;;;;;;12.50;8.30;;;;;;;15.57;72.02;100473.41;4937930;29;20119;-79
2022/05/11 04:21:30;;;;;;;17.38;9.10;;;;;;;15.61;71.25;100472.00;4942139;29;20051;-79
2022/05/11 04:23:57;;;;;;;15.15;8.75;;;;;;;15.88;69.63;100480.91;4941993;29;20059;-78
2022/05/11 04:26:23;;;;;;;13.30;8.55;;;;;;;15.95;69.43;100476.50;4941682;29;20122;-78
2022/05/11 04:28:51;;;;;;;19.00;9.55;;;;;;;16.15;68.85;100482.66;4940404;29;20090;-78
2022/05/11 04:31:18;;;;;;;13.95;8.90;;;;;;;16.20;68.22;100476.78;4941067;29;20075;-77
2022/05/11 04:33:47;;;;;;;15.85;8.75;;;;;;;16.11;68.27;100478.78;4939529;29;20077;-77
2022/05/11 04:36:13;;;;;;;16.67;9.57;;;;;;;16.08;68.97;100481.81;4938012;29;20055;-78
2022/05/11 04:38:40;;;;;;;16.98;9.50;;;;;;;16.04;68.84;100480.59;4939041;29;20380;-77
2022/05/11 04:41:07;;;;;;;14.60;9.02;;;;;;;16.06;69.80;100483.03;4940691;29;20111;-75
2022/05/11 04:43:33;;;;;;;15.32;9.02;;;;;;;16.14;69.32;100480.22;4942429;29;20048;-79
2022/05/11 04:46:01;;;;;;;17.65;9.65;;;;;;;16.15;69.37;100479.22;4941804;29;20136;-79
2022/05/11 04:48:28;;;;;;;16.65;9.23;;;;;;;16.20;69.20;100469.69;4939212;29;20203;-80
2022/05/11 04:51:01;;;;;;;19.25;9.32;;;;;;;16.24;69.04;100468.28;4940427;29;20134;-80
2022/05/11 04:53:28;;;;;;;18.60;9.38;;;;;;;16.23;69.10;100479.88;4940401;29;20052;-80
2022/05/11 04:55:54;;;;;;;13.85;9.20;;;;;;;16.23;69.23;100474.59;4940731;29;20112;-80
2022/05/11 04:58:21;;;;;;;18.52;9.90;;;;;;;16.56;68.30;100469.41;4939847;29;20143;-79
2022/05/11 05:00:48;;;;;;;18.95;9.88;;;;;;;16.66;67.55;100462.97;4939396;29;20055;-79
2022/05/11 05:03:19;;;;;;;16.17;9.68;;;;;;;16.77;67.15;100457.09;4938399;29;20494;-80
2022/05/11 05:05:48;;;;;;;21.55;9.68;;;;;;;17.23;65.78;100459.78;4940157;29;20134;-80
2022/05/11 05:08:15;;;;;;;19.98;9.48;;;;;;;17.57;64.49;100464.84;4939464;29;20134;-80
2022/05/11 05:10:42;;;;;;;14.57;9.73;;;;;;;17.89;63.45;100467.69;4939423;29;20134;-80
2022/05/11 05:13:12;;;;;;;15.85;9.30;;;;;;;17.95;62.83;100456.28;4938005;29;20098;-79
2022/05/11 05:15:42;;;;;;;13.52;8.73;;;;;;;18.33;62.26;100463.44;4937447;29;20055;-78
2022/05/11 05:18:09;;;;;;;18.65;9.75;;;;;;;18.36;61.91;100463.03;4935728;29;20520;-77
2022/05/11 05:20:39;;;;;;;16.17;9.35;;;;;;;18.49;62.27;100465.59;4935158;29;20499;-77
2022/05/11 05:23:08;;;;;;;13.02;8.95;;;;;;;18.59;61.73;100463.31;4936637;29;20067;-78
2022/05/11 05:25:35;;;;;;;13.10;9.15;;;;;;;18.46;62.32;100471.31;4939812;29;20362;-79
2022/05/11 05:31:06;;;;;;;13.45;9.20;;;;;;;20.31;56.94;100472.47;4916686;29;20092;-78
2022/05/11 05:33:33;;;;;;;13.48;9.27;;;;;;;21.35;53.76;100466.66;4934715;29;20056;-79
2022/05/11 05:36:03;;;;;;;14.70;9.75;;;;;;;21.77;52.50;100469.19;4938985;29;20139;-78
2022/05/11 05:38:30;;;;;;;17.02;9.38;;;;;;;21.66;53.48;100475.34;4934284;29;20061;-76
2022/05/11 05:40:56;;;;;;;12.38;9.50;;;;;;;21.73;53.32;100476.06;4935110;29;20059;-77
2022/05/11 05:43:23;;;;;;;15.88;9.45;;;;;;;21.66;53.93;100473.50;4935811;29;20511;-79
2022/05/11 05:45:51;;;;;;;19.02;9.77;;;;;;;21.93;52.80;100479.13;4935844;29;20047;-78
2022/05/11 05:48:19;;;;;;;10.77;9.65;;;;;;;22.00;52.82;100479.00;4934942;29;20055;-77
2022/05/11 05:50:46;;;;;;;12.60;9.68;;;;;;;22.86;50.45;100480.72;4934855;29;20051;-77
2022/05/11 05:53:19;;;;;;;14.73;9.95;;;;;;;22.92;50.40;100469.09;4935278;29;20062;-78
2022/05/11 05:55:46;;;;;;;16.67;9.98;;;;;;;23.05;49.36;100476.78;4935880;29;20138;-79
2022/05/11 05:58:14;;;;;;;14.63;9.55;;;;;;;23.41;48.90;100474.66;4930965;29;20063;-78
2022/05/11 06:00:47;;;;;;;14.57;9.13;;;;;;;24.12;47.27;100479.13;4933064;29;20075;-78
2022/05/11 06:03:19;;;;;;;;;;;;;;;23.75;47.79;100480.78;4933475;29;20134;-79
2022/05/11 06:05:49;;;;;;;10.27;8.55;;;;;;;24.36;46.89;100487.75;4935442;29;19927;-79
2022/05/11 06:08:20;;;;;;;13.80;8.40;;;;;;;24.43;46.21;100485.69;4934851;29;20056;-79
2022/05/11 06:10:47;;;;;;;16.08;9.80;;;;;;;24.81;44.51;100484.75;4933308;29;20051;-77
2022/05/11 06:13:16;;;;;;;15.38;9.05;;;;;;;25.19;44.28;100484.81;4933932;29;20048;-79
2022/05/11 06:15:44;;;;;;;17.45;9.05;;;;;;;25.18;43.78;100484.00;4931158;29;20150;-77
2022/05/11 06:18:13;;;;;;;11.55;8.40;;;;;;;25.27;43.77;100481.66;4931194;29;20499;-77
2022/05/11 06:20:40;;;;;;;11.35;8.32;;;;;;;24.75;43.51;100491.09;4932944;29;20411;-77
2022/05/11 06:23:07;;;;;;;12.90;7.85;;;;;;;25.21;42.66;100483.50;4937547;29;20111;-78
2022/05/11 06:25:38;;;;;;;13.07;8.20;;;;;;;25.49;42.41;100473.53;4937502;29;20075;-80
2022/05/11 06:28:08;;;;;;;13.68;7.50;;;;;;;26.16;40.08;100473.63;4941658;29;20063;-80
2022/05/11 06:30:36;;;;;;;12.43;7.13;;;;;;;26.59;38.63;100469.72;4938000;29;20506;-78
2022/05/11 06:33:05;;;;;;;11.68;7.05;;;;;;;26.90;38.51;100467.91;4938571;29;20098;-78
2022/05/11 06:35:32;;;;;;;13.38;7.40;;;;;;;26.90;38.08;100478.66;4939085;29;20086;-78
2022/05/11 06:38:03;;;;;;;9.57;6.93;;;;;;;26.33;39.21;100466.19;4938109;29;20106;-79
2022/05/11 06:40:32;;;;;;;11.07;7.05;;;;;;;26.56;37.36;100467.56;4939079;29;20059;-79
2022/05/11 06:43:03;;;;;;;10.57;6.80;;;;;;;26.36;39.26;100470.22;4937879;29;20063;-79
2022/05/11 06:45:34;;;;;;;9.52;6.68;;;;;;;27.44;36.96;100470.81;4937338;29;20095;-79
2022/05/11 06:48:01;;;;;;;10.52;7.20;;;;;;;26.79;38.33;100463.59;4936172;29;20525;-79
2022/05/11 06:50:34;;;;;;;11.43;6.88;;;;;;;27.10;37.42;100475.97;4937588;29;20055;-79
2022/05/11 06:53:09;;;;;;;12.57;7.30;;;;;;;26.71;37.22;100475.66;4934696;29;20091;-78
2022/05/11 07:01:08;;;;;;;11.20;6.68;;;;;;;27.62;35.66;100468.69;4933333;29;20063;-77
2022/05/11 07:03:34;;;;;;;10.20;6.43;;;;;;;27.72;34.72;100477.53;4933758;29;20048;-78
2022/05/11 07:06:01;;;;;;;11.80;6.55;;;;;;;27.54;35.70;100477.25;4935337;29;20134;-79
2022/05/11 07:08:34;;;;;;;6.53;5.38;;;;;;;28.33;33.99;100479.22;4937096;29;20060;-78
2022/05/11 07:13:47;;;;;;;9.30;5.35;;;;;;;27.54;34.71;100477.25;4938686;29;20115;-79
2022/05/11 07:16:13;;;;;;;15.32;5.80;;;;;;;27.44;35.94;100478.88;4937707;29;20209;-79
2022/05/11 07:18:41;;;;;;;10.00;5.90;;;;;;;27.40;36.07;100482.41;4937789;29;20411;-78
2022/05/11 07:21:07;;;;;;;10.13;5.25;;;;;;;27.47;36.20;100484.81;4974618;23;20059;-77
2022/05/11 07:23:34;;;;;;;8.30;5.70;;;;;;;28.25;34.20;100482.47;4959249;29;20126;-78
2022/05/11 07:26:01;;;;;;;9.63;5.50;;;;;;;28.33;34.09;100476.50;4961504;29;20051;-78
2022/05/11 07:28:27;;;;;;;9.55;4.50;;;;;;;27.37;33.97;100475.69;4960346;29;20489;-78
2022/05/11 07:30:55;;;;;;;10.27;4.88;;;;;;;26.78;35.15;100470.84;4945070;29;20134;-78
2022/05/11 07:33:22;;;;;;;6.28;5.05;;;;;;;27.30;34.99;100469.78;4941338;29;20090;-80
2022/05/11 07:35:49;;;;;;;11.10;5.65;;;;;;;26.63;35.70;100468.13;4941884;29;20059;-78
2022/05/11 07:38:19;;;;;;;18.50;6.93;;;;;;;25.61;38.30;100472.25;4941615;29;20086;-79
2022/05/11 07:40:46;;;;;;;10.55;6.00;;;;;;;26.38;36.58;100470.78;4942859;29;20052;-79
2022/05/11 07:43:13;;;;;;;9.15;5.68;;;;;;;26.05;37.54;100470.06;4943372;29;20502;-79
2022/05/11 07:45:42;;;;;;;14.02;6.07;;;;;;;25.82;38.37;100464.34;4941716;29;20070;-78
2022/05/11 07:48:10;;;;;;;7.13;6.03;;;;;;;26.06;38.46;100469.00;4941528;29;20147;-79
2022/05/11 07:50:38;;;;;;;13.88;6.28;;;;;;;26.36;38.20;100467.56;4941384;29;20135;-79
2022/05/11 07:53:05;;;;;;;13.82;6.45;;;;;;;27.15;37.55;100469.81;4943140;29;20130;-79
2022/05/11 07:55:33;;;;;;;14.93;7.57;;;;;;;26.20;38.40;100466.66;4948854;29;20111;-79
2022/05/11 08:00:44;;;;;;;17.80;7.28;;;;;;;27.20;37.25;100467.13;4944586;29;20062;-78
2022/05/11 08:03:12;;;;;;;19.23;7.80;;;;;;;26.57;38.11;100463.81;4953482;29;20080;-79
2022/05/11 08:05:38;;;;;;;13.60;6.15;;;;;;;27.03;37.72;100461.19;4951209;29;20051;-80
2022/05/11 08:08:07;;;;;;;9.05;5.57;;;;;;;26.59;37.93;100463.56;4944050;29;20059;-79
2022/05/11 08:10:37;;;;;;;8.43;5.25;;;;;;;26.60;37.77;100465.97;4944698;29;20052;-79
2022/05/11 08:13:06;;;;;;;15.30;6.07;;;;;;;25.86;38.73;100468.94;4942958;29;20518;-78
2022/05/11 08:15:35;;;;;;;8.63;5.20;;;;;;;26.35;37.80;100463.25;4942894;29;20056;-78
2022/05/11 08:18:01;;;;;;;9.48;5.15;;;;;;;26.61;37.63;100456.03;4952314;29;20055;-79
2022/05/11 08:20:33;;;;;;;11.40;5.80;;;;;;;26.29;38.07;100466.97;4957514;28;20044;-78
2022/05/11 08:23:02;;;;;;;7.78;5.63;;;;;;;26.27;38.08;100459.16;4958862;29;20043;-79
2022/05/11 08:25:31;;;;;;;10.70;5.65;;;;;;;26.60;37.89;100460.63;4955307;29;20051;-78
2022/05/11 08:27:59;;;;;;;8.70;5.80;;;;;;;26.09;38.34;100449.72;4942419;29;20060;-78
2022/05/11 08:33:23;;;;;;;11.30;5.13;;;;;;;26.64;37.48;100448.28;4942186;29;20066;-77
2022/05/11 08:35:55;;;;;;;9.10;4.72;;;;;;;26.56;38.11;100451.47;4940037;29;20051;-79
2022/05/11 08:38:23;;;;;;;11.85;4.78;;;;;;;27.01;37.38;100449.94;4942104;29;20200;-80
2022/05/11 08:40:56;;;;;;;10.35;4.90;;;;;;;26.36;38.75;100446.91;4944839;29;20087;-79
2022/05/11 08:43:23;;;;;;;7.53;4.75;;;;;;;26.70;36.95;100457.94;4944934;29;20055;-77
2022/05/11 08:45:56;;;;;;;12.88;5.30;;;;;;;26.89;37.33;100444.00;4940518;29;20075;-77
2022/05/11 08:48:36;;;;;;;10.88;4.70;;;;;;;27.22;37.24;100456.91;4941602;29;20061;-79
2022/05/11 08:51:09;;;;;;;15.52;5.10;;;;;;;27.91;36.04;100452.72;4941788;29;20506;-80
2022/05/11 08:53:38;;;;;;;9.98;5.38;;;;;;;27.28;35.99;100453.13;4942606;29;20051;-79
2022/05/11 08:56:12;;;;;;;9.73;5.80;;;;;;;26.86;37.73;100452.59;4942157;29;20107;-79
2022/05/11 08:58:45;;;;;;;11.15;5.65;;;;;;;27.95;36.12;100445.72;4941938;29;20091;-80
2022/05/11 09:01:19;;;;;;;14.60;5.63;;;;;;;26.90;37.27;100442.94;4942146;29;20052;-79
2022/05/11 09:03:46;;;;;;;9.63;5.60;;;;;;;26.81;37.75;100449.91;4942673;29;20082;-79
2022/05/11 09:06:19;;;;;;;9.65;5.53;;;;;;;26.31;38.73;100443.41;4942132;29;20052;-79
2022/05/11 09:08:46;;;;;;;8.15;5.35;;;;;;;27.29;37.95;100444.00;4941332;29;20444;-80
2022/05/11 09:11:16;;;;;;;8.85;5.85;;;;;;;27.84;36.48;100444.97;4942156;29;20503;-80
2022/05/11 09:13:44;;;;;;;10.10;5.68;;;;;;;27.31;37.95;100439.16;4942495;29;20043;-79
2022/05/11 09:16:20;;;;;;;11.68;5.88;;;;;;;27.48;37.56;100432.66;4940950;29;20087;-80
2022/05/11 09:18:47;;;;;;;7.63;6.00;;;;;;;27.38;37.42;100426.25;4940733;29;20482;-79
2022/05/11 09:21:31;;;;;;;8.80;5.82;;;;;;;27.54;36.97;100426.19;4941589;29;20514;-79
2022/05/11 09:24:09;;;;;;;8.98;6.05;;;;;;;27.12;37.73;100432.75;4941942;29;20063;-80
2022/05/11 09:26:38;;;;;;;12.52;5.72;;;;;;;27.46;37.57;100434.81;4941368;29;20059;-80
2022/05/11 09:29:19;;;;;;;10.45;5.90;;;;;;;27.39;37.63;100422.50;4938996;29;20068;-79
2022/05/11 09:31:46;;;;;;;8.52;6.00;;;;;;;27.24;37.69;100419.84;4942353;29;20138;-80
2022/05/11 09:34:15;;;;;;;8.75;6.30;;;;;;;27.95;37.38;100413.44;4941923;29;20123;-79
2022/05/11 09:36:55;;;;;;;13.80;6.25;;;;;;;27.59;37.79;100421.66;4940774;29;20400;-78
2022/05/11 09:39:22;;;;;;;11.40;5.90;;;;;;;27.20;38.31;100417.97;4939705;29;20057;-80
2022/05/11 09:41:52;;;;;;;9.88;5.70;;;;;;;27.27;37.35;100413.13;4941133;29;20055;-80
2022/05/11 09:44:23;;;;;;;10.23;6.40;;;;;;;26.90;37.80;100418.78;4941229;29;20518;-81
2022/05/11 09:46:50;;;;;;;11.30;6.07;;;;;;;26.87;38.90;100416.63;4940805;29;20059;-80
2022/05/11 09:49:27;;;;;;;11.85;6.35;;;;;;;26.58;37.72;100417.13;4938550;29;20543;-80
2022/05/11 09:51:58;;;;;;;16.33;6.20;;;;;;;26.63;38.73;100405.59;4940020;29;20142;-80
2022/05/11 09:54:32;;;;;;;8.82;6.25;;;;;;;26.33;40.41;100409.88;4941002;29;20051;-80
2022/05/11 09:57:04;;;;;;;10.10;6.05;;;;;;;26.89;39.46;100406.41;4939507;29;20059;-80
2022/05/11 09:59:34;;;;;;;9.82;6.00;;;;;;;26.60;39.21;100414.19;4940693;29;20143;-80
2022/05/11 10:02:12;;;;;;;12.35;6.28;;;;;;;26.60;39.17;100409.63;4942231;29;20055;-79
2022/05/11 10:04:43;;;;;;;13.13;6.47;;;;;;;25.98;39.42;100399.03;4941057;29;20134;-80
2022/05/11 10:07:19;;;;;;;11.63;6.05;;;;;;;25.81;40.63;100396.53;4938797;29;20474;-80
2022/05/11 10:09:51;;;;;;;9.55;6.82;;;;;;;25.83;40.18;100399.78;4939317;29;20055;-79
2022/05/11 10:12:23;;;;;;;9.82;6.40;;;;;;;26.00;40.64;100399.53;4941304;29;20055;-80
2022/05/11 10:23:16;;;;;;;9.90;6.60;;;;;;;26.49;38.89;100386.53;4939376;29;20112;-79
2022/05/11 10:25:48;;;;;;;11.15;6.07;;;;;;;26.34;39.50;100389.22;4940088;29;20059;-81
2022/05/11 10:28:28;;;;;;;11.57;6.45;;;;;;;26.42;39.85;100377.97;4939492;29;20193;-78
2022/05/11 10:30:59;;;;;;;13.02;6.13;;;;;;;26.82;39.59;100374.47;4940190;29;20111;-80
2022/05/11 10:33:46;;;;;;;11.00;6.30;;;;;;;26.49;38.95;100369.63;4938803;29;20056;-80
2022/05/11 10:36:21;;;;;;;10.40;6.72;;;;;;;26.28;39.28;100358.06;4938593;29;20099;-81
2022/05/11 10:39:14;;;;;;;9.75;6.20;;;;;;;26.71;39.01;100368.31;4939728;29;20403;-80
2022/05/11 10:41:48;;;;;;;11.65;6.65;;;;;;;26.42;38.91;100364.56;4939800;29;20111;-81
2022/05/11 10:44:42;;;;;;;6.60;5.72;;;;;;;25.96;40.44;100367.13;4943610;29;20058;-78
2022/05/11 10:47:26;;;;;;;8.60;5.68;;;;;;;26.34;39.75;100357.84;4941896;29;20051;-81
2022/05/11 10:50:11;;;;;;;10.05;6.13;;;;;;;26.64;39.03;100348.16;4943702;29;20078;-81
2022/05/11 10:52:51;;;;;;;10.30;6.03;;;;;;;26.54;39.11;100361.59;4943497;29;20111;-81
2022/05/11 10:55:25;;;;;;;10.95;6.30;;;;;;;26.53;38.64;100347.38;4943916;29;20514;-80
2022/05/11 10:58:08;;;;;;;10.35;5.70;;;;;;;26.72;38.29;100343.06;4943706;29;20055;-81
2022/05/11 11:00:42;;;;;;;8.00;5.57;;;;;;;26.51;38.75;100341.47;4946130;29;20092;-78
2022/05/11 11:03:38;;;;;;;9.65;6.35;;;;;;;26.58;39.02;100346.56;4949385;29;20058;-79
2022/05/11 11:09:10;;;;;;;16.50;6.65;;;;;;;26.50;40.39;100339.03;4947051;29;20083;-77
2022/05/11 11:11:47;;;;;;;9.82;5.30;;;;;;;26.61;39.48;100330.72;4952158;29;20087;-78
2022/05/11 11:14:21;;;;;;;12.68;5.90;;;;;;;26.97;39.84;100333.38;4948661;29;20083;-79
2022/05/11 11:16:48;;;;;;;7.75;6.15;;;;;;;26.33;38.95;100331.28;4944520;29;20086;-79
2022/05/11 11:19:15;;;;;;;14.10;6.53;;;;;;;26.57;39.37;100321.59;4947685;29;20086;-79
2022/05/11 11:21:44;;;;;;;14.38;5.90;;;;;;;26.31;39.73;100314.63;4952509;29;20557;-79
2022/05/11 11:24:17;;;;;;;16.10;5.70;;;;;;;26.47;39.75;100321.59;4950832;29;20043;-80
2022/05/11 11:26:50;;;;;;;11.35;5.82;;;;;;;26.65;39.54;100304.97;4943424;29;20114;-78
2022/05/11 11:29:21;;;;;;;18.92;6.28;;;;;;;26.70;39.26;100306.84;4942074;29;20071;-79
2022/05/11 11:32:04;;;;;;;11.57;6.05;;;;;;;27.28;39.00;100310.75;4944227;29;20075;-79
2022/05/11 11:34:32;;;;;;;8.68;6.13;;;;;;;27.09;38.18;100304.38;4942408;29;20048;-79
2022/05/11 11:37:00;;;;;;;8.32;5.80;;;;;;;26.95;37.97;100292.56;4942567;29;20134;-80
2022/05/11 11:39:53;;;;;;;13.23;5.88;;;;;;;26.94;38.97;100297.13;4942096;29;20471;-81
2022/05/11 11:42:36;;;;;;;10.13;5.75;;;;;;;27.42;38.71;100298.31;4941773;29;20055;-78
2022/05/11 11:45:05;;;;;;;9.40;5.68;;;;;;;27.14;38.02;100296.28;4940748;29;20070;-80
2022/05/11 11:47:40;;;;;;;9.73;5.80;;;;;;;27.21;38.50;100291.44;4942013;29;20138;-79
2022/05/11 11:50:14;;;;;;;10.40;5.57;;;;;;;27.39;38.51;100288.16;4942532;29;20087;-80
2022/05/11 11:52:43;;;;;;;8.95;5.80;;;;;;;27.12;38.60;100287.72;4943091;29;20107;-80
2022/05/11 11:55:26;;;;;;;9.18;5.88;;;;;;;26.99;38.50;100281.03;4940006;29;20051;-79
2022/05/11 11:57:57;;;;;;;11.57;6.07;;;;;;;27.23;38.51;100277.75;4942710;29;20082;-79
2022/05/11 12:00:56;;;;;;;10.15;5.72;;;;;;;27.28;38.24;100281.22;4942039;29;20084;-79
2022/05/11 12:03:26;;;;;;;13.82;5.55;;;;;;;27.27;38.27;100276.91;4942324;29;20052;-82
2022/05/11 12:05:55;;;;;;;15.32;6.60;;;;;;;27.08;38.68;100270.53;4941738;29;20078;-79